Gallup Mills, Vermont
Current Conditions -  °F | °C
As of 12:55 PM on Saturday 22 Nov 2014 (Local Time) from KCDA Reporting Station
Clear Clear  
Wind Chill: 21°   Ceiling: Unl
Heat Index: 28°   Visibility: 10mi
Dew Point: 13°   Wind: 6mph
Humidity: 55%   Direction: 120°ESE
Pressure: 30.05"   Gusts: NA
Location:  44.5627°N, 71.7775°W
Report Text: KCDA 221755Z AUTO 12005KT 10SM CLR M02/M10 A3005 RMK AO2 T10251105 11025 21087
Loading
Personal Weather Stations






























Interactive Weather Map New forecast layout! Learn more

10-Day Weather Forecast

Advertisements
Track Severe Weather on mobile